sensor_id;sensor_type;location;lat;lon;timestamp;temperature;humidity
86002;DHT22;76581;51.988;5.854;2024-03-23T00:52:45;9.40;89.90
86002;DHT22;76581;51.988;5.854;2024-03-23T00:53:45;9.40;90.00
86002;DHT22;76581;51.988;5.854;2024-03-23T00:54:46;9.40;90.00
86002;DHT22;76581;51.988;5.854;2024-03-23T00:55:47;9.40;90.00
86002;DHT22;76581;51.988;5.854;2024-03-23T00:56:47;9.40;89.90
86002;DHT22;76581;51.988;5.854;2024-03-23T00:57:47;9.40;90.00
86002;DHT22;76581;51.988;5.854;2024-03-23T00:58:48;9.40;90.00
86002;DHT22;76581;51.988;5.854;2024-03-23T00:59:49;9.40;90.00
86002;DHT22;76581;51.988;5.854;2024-03-23T01:00:49;9.40;90.00
86002;DHT22;76581;51.988;5.854;2024-03-23T01:01:50;9.40;90.00
86002;DHT22;76581;51.988;5.854;2024-03-23T01:02:51;9.40;90.00
86002;DHT22;76581;51.988;5.854;2024-03-23T01:03:51;9.40;90.00
86002;DHT22;76581;51.988;5.854;2024-03-23T01:04:52;9.40;90.00
86002;DHT22;76581;51.988;5.854;2024-03-23T01:05:52;9.40;90.00
86002;DHT22;76581;51.988;5.854;2024-03-23T01:06:54;9.40;90.00
86002;DHT22;76581;51.988;5.854;2024-03-23T01:07:55;9.40;90.00
86002;DHT22;76581;51.988;5.854;2024-03-23T01:08:55;9.40;90.00
86002;DHT22;76581;51.988;5.854;2024-03-23T01:09:56;9.40;89.90
86002;DHT22;76581;51.988;5.854;2024-03-23T01:10:57;9.40;89.80
86002;DHT22;76581;51.988;5.854;2024-03-23T01:11:58;9.40;89.80
86002;DHT22;76581;51.988;5.854;2024-03-23T01:12:59;9.40;89.70
86002;DHT22;76581;51.988;5.854;2024-03-23T01:13:59;9.40;89.60
86002;DHT22;76581;51.988;5.854;2024-03-23T01:15:00;9.40;89.60
86002;DHT22;76581;51.988;5.854;2024-03-23T01:16:00;9.40;89.70
86002;DHT22;76581;51.988;5.854;2024-03-23T01:17:02;9.40;89.70
86002;DHT22;76581;51.988;5.854;2024-03-23T01:18:02;9.40;89.80
86002;DHT22;76581;51.988;5.854;2024-03-23T01:19:03;9.40;89.80
86002;DHT22;76581;51.988;5.854;2024-03-23T01:20:04;9.40;89.80
86002;DHT22;76581;51.988;5.854;2024-03-23T01:21:04;9.30;89.80
86002;DHT22;76581;51.988;5.854;2024-03-23T01:22:05;9.30;89.80
86002;DHT22;76581;51.988;5.854;2024-03-23T01:23:05;9.30;90.20
86002;DHT22;76581;51.988;5.854;2024-03-23T01:24:06;9.30;89.70
86002;DHT22;76581;51.988;5.854;2024-03-23T01:25:09;9.30;89.80
86002;DHT22;76581;51.988;5.854;2024-03-23T01:26:09;9.30;89.70
86002;DHT22;76581;51.988;5.854;2024-03-23T01:27:10;9.30;89.90
86002;DHT22;76581;51.988;5.854;2024-03-23T01:28:10;9.30;90.00
86002;DHT22;76581;51.988;5.854;2024-03-23T01:29:11;9.30;90.00
86002;DHT22;76581;51.988;5.854;2024-03-23T01:30:12;9.30;90.00
86002;DHT22;76581;51.988;5.854;2024-03-23T01:31:14;9.30;90.00
86002;DHT22;76581;51.988;5.854;2024-03-23T01:32:16;9.30;90.00
86002;DHT22;76581;51.988;5.854;2024-03-23T01:33:16;9.30;90.00
86002;DHT22;76581;51.988;5.854;2024-03-23T01:34:17;9.30;90.00
86002;DHT22;76581;51.988;5.854;2024-03-23T01:35:17;9.30;90.00
86002;DHT22;76581;51.988;5.854;2024-03-23T01:36:18;9.30;90.00
86002;DHT22;76581;51.988;5.854;2024-03-23T01:37:20;9.30;90.00
86002;DHT22;76581;51.988;5.854;2024-03-23T01:38:20;9.30;90.00
86002;DHT22;76581;51.988;5.854;2024-03-23T01:39:21;9.30;89.80
86002;DHT22;76581;51.988;5.854;2024-03-23T01:40:21;9.30;89.70
86002;DHT22;76581;51.988;5.854;2024-03-23T01:41:24;9.30;89.60
86002;DHT22;76581;51.988;5.854;2024-03-23T01:42:24;9.30;89.60
86002;DHT22;76581;51.988;5.854;2024-03-23T01:43:25;9.30;90.20
86002;DHT22;76581;51.988;5.854;2024-03-23T01:44:25;9.20;89.80
86002;DHT22;76581;51.988;5.854;2024-03-23T01:45:26;9.20;89.60
86002;DHT22;76581;51.988;5.854;2024-03-23T01:46:27;9.30;89.80
86002;DHT22;76581;51.988;5.854;2024-03-23T01:47:27;9.20;89.80
86002;DHT22;76581;51.988;5.854;2024-03-23T01:48:28;9.20;89.90
86002;DHT22;76581;51.988;5.854;2024-03-23T01:49:28;9.20;90.00
86002;DHT22;76581;51.988;5.854;2024-03-23T01:50:30;9.20;90.00
86002;DHT22;76581;51.988;5.854;2024-03-23T01:51:34;9.20;90.00
86002;DHT22;76581;51.988;5.854;2024-03-23T01:52:34;9.20;89.80
86002;DHT22;76581;51.988;5.854;2024-03-23T01:53:35;9.20;89.70
86002;DHT22;76581;51.988;5.854;2024-03-23T01:54:35;9.20;89.60
86002;DHT22;76581;51.988;5.854;2024-03-23T01:55:36;9.20;89.80
86002;DHT22;76581;51.988;5.854;2024-03-23T01:56:38;9.20;89.90
86002;DHT22;76581;51.988;5.854;2024-03-23T01:57:38;9.20;90.00
86002;DHT22;76581;51.988;5.854;2024-03-23T01:58:39;9.20;89.90
86002;DHT22;76581;51.988;5.854;2024-03-23T01:59:40;9.20;89.80
86002;DHT22;76581;51.988;5.854;2024-03-23T02:00:40;9.20;89.90
86002;DHT22;76581;51.988;5.854;2024-03-23T02:01:41;9.20;89.90
86002;DHT22;76581;51.988;5.854;2024-03-23T02:02:45;9.20;90.00
86002;DHT22;76581;51.988;5.854;2024-03-23T02:03:46;9.20;90.00
86002;DHT22;76581;51.988;5.854;2024-03-23T02:04:46;9.20;89.90
86002;DHT22;76581;51.988;5.854;2024-03-23T02:05:47;9.20;90.00
86002;DHT22;76581;51.988;5.854;2024-03-23T02:06:47;9.20;89.90
86002;DHT22;76581;51.988;5.854;2024-03-23T02:07:49;9.20;90.00
86002;DHT22;76581;51.988;5.854;2024-03-23T02:08:49;9.20;90.20
86002;DHT22;76581;51.988;5.854;2024-03-23T02:09:51;9.20;89.80
86002;DHT22;76581;51.988;5.854;2024-03-23T02:10:52;9.20;89.80
86002;DHT22;76581;51.988;5.854;2024-03-23T02:11:52;9.20;89.90
86002;DHT22;76581;51.988;5.854;2024-03-23T02:12:53;9.20;89.90
86002;DHT22;76581;51.988;5.854;2024-03-23T02:13:53;9.20;90.00
86002;DHT22;76581;51.988;5.854;2024-03-23T02:14:53;9.20;90.00
86002;DHT22;76581;51.988;5.854;2024-03-23T02:15:54;9.20;90.00
86002;DHT22;76581;51.988;5.854;2024-03-23T02:16:55;9.20;90.00
86002;DHT22;76581;51.988;5.854;2024-03-23T02:17:55;9.20;90.00
86002;DHT22;76581;51.988;5.854;2024-03-23T02:18:55;9.20;90.00
86002;DHT22;76581;51.988;5.854;2024-03-23T02:19:57;9.20;89.90
86002;DHT22;76581;51.988;5.854;2024-03-23T02:20:58;9.20;89.80
86002;DHT22;76581;51.988;5.854;2024-03-23T02:21:58;9.20;89.70
86002;DHT22;76581;51.988;5.854;2024-03-23T02:22:59;9.20;89.80
86002;DHT22;76581;51.988;5.854;2024-03-23T02:24:00;9.20;89.80
86002;DHT22;76581;51.988;5.854;2024-03-23T02:25:00;9.20;89.90
86002;DHT22;76581;51.988;5.854;2024-03-23T02:26:01;9.20;89.90
86002;DHT22;76581;51.988;5.854;2024-03-23T02:27:02;9.20;90.00
86002;DHT22;76581;51.988;5.854;2024-03-23T02:28:03;9.20;90.00
86002;DHT22;76581;51.988;5.854;2024-03-23T02:29:04;9.20;90.00
86002;DHT22;76581;51.988;5.854;2024-03-23T02:30:05;9.20;90.00
86002;DHT22;76581;51.988;5.854;2024-03-23T02:31:05;9.20;90.00
86002;DHT22;76581;51.988;5.854;2024-03-23T02:32:06;9.20;90.00
86002;DHT22;76581;51.988;5.854;2024-03-23T02:33:09;9.20;90.00
86002;DHT22;76581;51.988;5.854;2024-03-23T02:34:09;9.20;90.00
86002;DHT22;76581;51.988;5.854;2024-03-23T02:35:10;9.20;89.90
86002;DHT22;76581;51.988;5.854;2024-03-23T02:36:10;9.20;89.80
86002;DHT22;76581;51.988;5.854;2024-03-23T02:37:11;9.20;89.80
86002;DHT22;76581;51.988;5.854;2024-03-23T02:38:12;9.20;89.80
86002;DHT22;76581;51.988;5.854;2024-03-23T02:39:12;9.10;89.70
86002;DHT22;76581;51.988;5.854;2024-03-23T02:40:13;9.20;89.90
86002;DHT22;76581;51.988;5.854;2024-03-23T02:41:13;9.10;89.80
86002;DHT22;76581;51.988;5.854;2024-03-23T02:42:14;9.10;89.60
86002;DHT22;76581;51.988;5.854;2024-03-23T02:43:17;9.10;89.60
86002;DHT22;76581;51.988;5.854;2024-03-23T02:44:18;9.10;89.80
86002;DHT22;76581;51.988;5.854;2024-03-23T02:45:19;9.10;89.80
86002;DHT22;76581;51.988;5.854;2024-03-23T02:46:19;9.10;89.90
86002;DHT22;76581;51.988;5.854;2024-03-23T02:47:20;9.10;89.80
86002;DHT22;76581;51.988;5.854;2024-03-23T02:48:20;9.10;89.80
86002;DHT22;76581;51.988;5.854;2024-03-23T02:49:21;9.10;89.90
86002;DHT22;76581;51.988;5.854;2024-03-23T02:50:21;9.00;89.80
86002;DHT22;76581;51.988;5.854;2024-03-23T02:51:22;9.00;89.90
86002;DHT22;76581;51.988;5.854;2024-03-23T02:52:22;9.00;89.90
86002;DHT22;76581;51.988;5.854;2024-03-23T02:53:23;9.00;89.80
86002;DHT22;76581;51.988;5.854;2024-03-23T02:54:23;9.00;89.80
86002;DHT22;76581;51.988;5.854;2024-03-23T02:55:24;9.00;89.80
86002;DHT22;76581;51.988;5.854;2024-03-23T02:56:24;9.00;89.80
86002;DHT22;76581;51.988;5.854;2024-03-23T02:57:25;9.00;89.70
86002;DHT22;76581;51.988;5.854;2024-03-23T02:58:26;9.00;89.70
86002;DHT22;76581;51.988;5.854;2024-03-23T02:59:26;8.90;89.80
86002;DHT22;76581;51.988;5.854;2024-03-23T03:00:28;8.90;90.00
86002;DHT22;76581;51.988;5.854;2024-03-23T03:01:28;8.90;90.00
86002;DHT22;76581;51.988;5.854;2024-03-23T03:02:29;8.90;89.90
86002;DHT22;76581;51.988;5.854;2024-03-23T03:03:29;8.90;89.90
86002;DHT22;76581;51.988;5.854;2024-03-23T03:04:30;8.90;89.80
86002;DHT22;76581;51.988;5.854;2024-03-23T03:05:31;8.90;89.80
86002;DHT22;76581;51.988;5.854;2024-03-23T03:06:31;8.90;89.70
86002;DHT22;76581;51.988;5.854;2024-03-23T03:07:32;8.90;89.90
86002;DHT22;76581;51.988;5.854;2024-03-23T03:08:33;8.90;89.70
86002;DHT22;76581;51.988;5.854;2024-03-23T03:09:33;8.90;89.80
86002;DHT22;76581;51.988;5.854;2024-03-23T03:10:35;8.90;89.80
86002;DHT22;76581;51.988;5.854;2024-03-23T03:11:36;8.90;89.90
86002;DHT22;76581;51.988;5.854;2024-03-23T03:12:37;8.80;89.80
86002;DHT22;76581;51.988;5.854;2024-03-23T03:13:38;8.90;90.00
86002;DHT22;76581;51.988;5.854;2024-03-23T03:14:38;8.90;90.00
86002;DHT22;76581;51.988;5.854;2024-03-23T03:15:43;8.90;90.00
86002;DHT22;76581;51.988;5.854;2024-03-23T03:16:44;8.90;89.80
86002;DHT22;76581;51.988;5.854;2024-03-23T03:17:44;8.80;89.60
86002;DHT22;76581;51.988;5.854;2024-03-23T03:18:45;8.80;89.50
86002;DHT22;76581;51.988;5.854;2024-03-23T03:19:46;8.80;89.50
86002;DHT22;76581;51.988;5.854;2024-03-23T03:20:47;8.80;89.50
86002;DHT22;76581;51.988;5.854;2024-03-23T03:21:47;8.80;89.30
86002;DHT22;76581;51.988;5.854;2024-03-23T03:22:48;8.80;89.40
86002;DHT22;76581;51.988;5.854;2024-03-23T03:23:49;8.70;89.40
86002;DHT22;76581;51.988;5.854;2024-03-23T03:24:50;8.70;89.50
86002;DHT22;76581;51.988;5.854;2024-03-23T03:25:51;8.70;89.50
86002;DHT22;76581;51.988;5.854;2024-03-23T03:26:51;8.70;89.40
86002;DHT22;76581;51.988;5.854;2024-03-23T03:27:52;8.70;89.60
86002;DHT22;76581;51.988;5.854;2024-03-23T03:28:53;8.70;89.80
86002;DHT22;76581;51.988;5.854;2024-03-23T03:29:53;8.70;89.80
86002;DHT22;76581;51.988;5.854;2024-03-23T03:30:54;8.70;90.20
86002;DHT22;76581;51.988;5.854;2024-03-23T03:31:54;8.70;89.70
86002;DHT22;76581;51.988;5.854;2024-03-23T03:32:55;8.60;89.80
86002;DHT22;76581;51.988;5.854;2024-03-23T03:33:55;8.60;89.80
86002;DHT22;76581;51.988;5.854;2024-03-23T03:34:56;8.60;89.80
86002;DHT22;76581;51.988;5.854;2024-03-23T03:35:57;8.60;89.90
86002;DHT22;76581;51.988;5.854;2024-03-23T03:36:57;8.60;90.00
86002;DHT22;76581;51.988;5.854;2024-03-23T03:37:58;8.60;89.80
86002;DHT22;76581;51.988;5.854;2024-03-23T03:38:58;8.60;89.70
86002;DHT22;76581;51.988;5.854;2024-03-23T03:39:59;8.60;89.80
86002;DHT22;76581;51.988;5.854;2024-03-23T03:40:59;8.60;89.70
86002;DHT22;76581;51.988;5.854;2024-03-23T03:42:00;8.60;89.80
86002;DHT22;76581;51.988;5.854;2024-03-23T03:43:02;8.60;89.70
86002;DHT22;76581;51.988;5.854;2024-03-23T03:44:02;8.60;89.80
86002;DHT22;76581;51.988;5.854;2024-03-23T03:45:03;8.60;89.80
86002;DHT22;76581;51.988;5.854;2024-03-23T03:46:05;8.60;89.80
86002;DHT22;76581;51.988;5.854;2024-03-23T03:47:08;8.60;89.80
86002;DHT22;76581;51.988;5.854;2024-03-23T03:48:08;8.60;90.00
86002;DHT22;76581;51.988;5.854;2024-03-23T03:49:09;8.60;90.00
86002;DHT22;76581;51.988;5.854;2024-03-23T03:50:10;8.60;89.80
86002;DHT22;76581;51.988;5.854;2024-03-23T03:51:10;8.60;89.90
86002;DHT22;76581;51.988;5.854;2024-03-23T03:52:11;8.60;89.80
86002;DHT22;76581;51.988;5.854;2024-03-23T03:53:12;8.60;89.80
86002;DHT22;76581;51.988;5.854;2024-03-23T03:54:12;8.60;89.80
86002;DHT22;76581;51.988;5.854;2024-03-23T03:55:13;8.60;89.70
86002;DHT22;76581;51.988;5.854;2024-03-23T03:56:14;8.60;89.60
86002;DHT22;76581;51.988;5.854;2024-03-23T03:57:15;8.60;89.70
86002;DHT22;76581;51.988;5.854;2024-03-23T03:58:15;8.60;89.80
86002;DHT22;76581;51.988;5.854;2024-03-23T03:59:17;8.60;89.60
86002;DHT22;76581;51.988;5.854;2024-03-23T04:00:18;8.60;89.60
86002;DHT22;76581;51.988;5.854;2024-03-23T04:01:18;8.60;89.50
86002;DHT22;76581;51.988;5.854;2024-03-23T04:02:19;8.60;89.30
86002;DHT22;76581;51.988;5.854;2024-03-23T04:03:20;8.60;89.30
86002;DHT22;76581;51.988;5.854;2024-03-23T04:04:21;8.60;89.30
86002;DHT22;76581;51.988;5.854;2024-03-23T04:05:23;8.50;89.20
86002;DHT22;76581;51.988;5.854;2024-03-23T04:06:23;8.50;89.20
86002;DHT22;76581;51.988;5.854;2024-03-23T04:07:24;8.50;89.30
86002;DHT22;76581;51.988;5.854;2024-03-23T04:08:25;8.50;89.30
86002;DHT22;76581;51.988;5.854;2024-03-23T04:09:25;8.50;89.40
86002;DHT22;76581;51.988;5.854;2024-03-23T04:10:29;8.50;89.30
86002;DHT22;76581;51.988;5.854;2024-03-23T04:11:29;8.50;89.20
86002;DHT22;76581;51.988;5.854;2024-03-23T04:12:30;8.50;89.30
86002;DHT22;76581;51.988;5.854;2024-03-23T04:13:30;8.50;89.40
86002;DHT22;76581;51.988;5.854;2024-03-23T04:14:31;8.50;89.30
86002;DHT22;76581;51.988;5.854;2024-03-23T04:15:32;8.50;89.40
86002;DHT22;76581;51.988;5.854;2024-03-23T04:16:34;8.40;89.20
86002;DHT22;76581;51.988;5.854;2024-03-23T04:17:35;8.40;89.40
86002;DHT22;76581;51.988;5.854;2024-03-23T04:18:36;8.40;89.40
86002;DHT22;76581;51.988;5.854;2024-03-23T04:19:37;8.40;89.10
86002;DHT22;76581;51.988;5.854;2024-03-23T04:20:37;8.40;89.20
86002;DHT22;76581;51.988;5.854;2024-03-23T04:21:38;8.40;89.00
86002;DHT22;76581;51.988;5.854;2024-03-23T04:22:38;8.40;88.90
86002;DHT22;76581;51.988;5.854;2024-03-23T04:23:39;8.40;88.90
86002;DHT22;76581;51.988;5.854;2024-03-23T04:24:40;8.40;88.90
86002;DHT22;76581;51.988;5.854;2024-03-23T04:25:40;8.30;89.10
86002;DHT22;76581;51.988;5.854;2024-03-23T04:26:44;8.40;89.10
86002;DHT22;76581;51.988;5.854;2024-03-23T04:27:44;8.30;88.90
86002;DHT22;76581;51.988;5.854;2024-03-23T04:28:45;8.30;89.00
86002;DHT22;76581;51.988;5.854;2024-03-23T04:29:52;8.30;88.90
86002;DHT22;76581;51.988;5.854;2024-03-23T04:30:55;8.30;88.90
86002;DHT22;76581;51.988;5.854;2024-03-23T04:31:56;8.30;89.10
86002;DHT22;76581;51.988;5.854;2024-03-23T04:32:57;8.30;89.10
86002;DHT22;76581;51.988;5.854;2024-03-23T04:33:58;8.30;89.10
86002;DHT22;76581;51.988;5.854;2024-03-23T04:34:59;8.30;89.00
86002;DHT22;76581;51.988;5.854;2024-03-23T04:35:59;8.20;88.80
86002;DHT22;76581;51.988;5.854;2024-03-23T04:37:00;8.20;88.80
86002;DHT22;76581;51.988;5.854;2024-03-23T04:38:00;8.20;88.90
86002;DHT22;76581;51.988;5.854;2024-03-23T04:39:01;8.20;88.80
86002;DHT22;76581;51.988;5.854;2024-03-23T04:40:02;8.20;88.80
86002;DHT22;76581;51.988;5.854;2024-03-23T04:41:03;8.20;88.80
86002;DHT22;76581;51.988;5.854;2024-03-23T04:42:05;8.20;88.80
86002;DHT22;76581;51.988;5.854;2024-03-23T04:43:05;8.20;88.80
86002;DHT22;76581;51.988;5.854;2024-03-23T04:44:06;8.20;88.80
86002;DHT22;76581;51.988;5.854;2024-03-23T04:45:07;8.20;88.80
86002;DHT22;76581;51.988;5.854;2024-03-23T04:46:07;8.20;88.80
86002;DHT22;76581;51.988;5.854;2024-03-23T04:47:08;8.20;88.60
86002;DHT22;76581;51.988;5.854;2024-03-23T04:48:08;8.10;88.40
86002;DHT22;76581;51.988;5.854;2024-03-23T04:49:09;8.10;88.60
86002;DHT22;76581;51.988;5.854;2024-03-23T04:50:10;8.10;88.80
86002;DHT22;76581;51.988;5.854;2024-03-23T04:51:11;8.10;88.70
86002;DHT22;76581;51.988;5.854;2024-03-23T04:52:15;8.00;88.50
86002;DHT22;76581;51.988;5.854;2024-03-23T04:53:16;8.00;88.70
86002;DHT22;76581;51.988;5.854;2024-03-23T04:54:16;8.00;88.70
86002;DHT22;76581;51.988;5.854;2024-03-23T04:55:17;8.00;88.80
86002;DHT22;76581;51.988;5.854;2024-03-23T04:56:17;8.00;88.80
86002;DHT22;76581;51.988;5.854;2024-03-23T04:57:18;8.00;88.80
86002;DHT22;76581;51.988;5.854;2024-03-23T04:58:19;8.00;88.60
86002;DHT22;76581;51.988;5.854;2024-03-23T04:59:19;8.00;88.60
86002;DHT22;76581;51.988;5.854;2024-03-23T05:00:20;8.00;88.80
86002;DHT22;76581;51.988;5.854;2024-03-23T05:01:20;8.00;88.60
86002;DHT22;76581;51.988;5.854;2024-03-23T05:02:22;8.00;88.80
86002;DHT22;76581;51.988;5.854;2024-03-23T05:03:23;8.00;88.80
86002;DHT22;76581;51.988;5.854;2024-03-23T05:04:24;7.90;88.70
86002;DHT22;76581;51.988;5.854;2024-03-23T05:05:24;7.90;88.70
86002;DHT22;76581;51.988;5.854;2024-03-23T05:06:25;8.00;88.60
86002;DHT22;76581;51.988;5.854;2024-03-23T05:07:25;8.00;88.60
86002;DHT22;76581;51.988;5.854;2024-03-23T05:08:26;7.90;88.50
86002;DHT22;76581;51.988;5.854;2024-03-23T05:09:27;7.90;88.30
86002;DHT22;76581;51.988;5.854;2024-03-23T05:10:30;7.90;88.30
86002;DHT22;76581;51.988;5.854;2024-03-23T05:11:33;7.90;88.60
86002;DHT22;76581;51.988;5.854;2024-03-23T05:12:34;7.90;88.60
86002;DHT22;76581;51.988;5.854;2024-03-23T05:13:34;7.90;88.80
86002;DHT22;76581;51.988;5.854;2024-03-23T05:14:35;7.90;88.80
86002;DHT22;76581;51.988;5.854;2024-03-23T05:15:35;7.80;88.50
86002;DHT22;76581;51.988;5.854;2024-03-23T05:16:36;7.90;88.60
86002;DHT22;76581;51.988;5.854;2024-03-23T05:17:37;7.80;88.50
86002;DHT22;76581;51.988;5.854;2024-03-23T05:18:38;7.80;88.60
86002;DHT22;76581;51.988;5.854;2024-03-23T05:19:39;7.80;88.80
86002;DHT22;76581;51.988;5.854;2024-03-23T05:20:39;7.80;88.60
86002;DHT22;76581;51.988;5.854;2024-03-23T05:21:40;7.80;88.70
86002;DHT22;76581;51.988;5.854;2024-03-23T05:22:40;7.90;88.60
86002;DHT22;76581;51.988;5.854;2024-03-23T05:23:41;7.90;88.40
86002;DHT22;76581;51.988;5.854;2024-03-23T05:24:45;7.90;88.30
86002;DHT22;76581;51.988;5.854;2024-03-23T05:25:46;7.80;87.80
86002;DHT22;76581;51.988;5.854;2024-03-23T05:26:46;7.80;88.10
86002;DHT22;76581;51.988;5.854;2024-03-23T05:27:47;7.80;88.40
86002;DHT22;76581;51.988;5.854;2024-03-23T05:28:47;7.80;88.50
86002;DHT22;76581;51.988;5.854;2024-03-23T05:29:48;7.80;88.60
86002;DHT22;76581;51.988;5.854;2024-03-23T05:30:55;7.80;88.60
86002;DHT22;76581;51.988;5.854;2024-03-23T05:31:57;7.80;88.60
86002;DHT22;76581;51.988;5.854;2024-03-23T05:32:57;7.80;88.30
86002;DHT22;76581;51.988;5.854;2024-03-23T05:33:58;7.80;88.30
86002;DHT22;76581;51.988;5.854;2024-03-23T05:34:59;7.80;88.30
86002;DHT22;76581;51.988;5.854;2024-03-23T05:36:00;7.80;88.10
86002;DHT22;76581;51.988;5.854;2024-03-23T05:37:01;7.80;88.00
86002;DHT22;76581;51.988;5.854;2024-03-23T05:38:02;7.80;88.00
86002;DHT22;76581;51.988;5.854;2024-03-23T05:39:03;7.80;87.80
86002;DHT22;76581;51.988;5.854;2024-03-23T05:40:04;7.80;87.70
86002;DHT22;76581;51.988;5.854;2024-03-23T05:41:05;7.80;87.70
86002;DHT22;76581;51.988;5.854;2024-03-23T05:42:05;7.70;87.70
86002;DHT22;76581;51.988;5.854;2024-03-23T05:43:06;7.70;87.80
86002;DHT22;76581;51.988;5.854;2024-03-23T05:44:07;7.70;87.60
86002;DHT22;76581;51.988;5.854;2024-03-23T05:45:08;7.70;87.70
86002;DHT22;76581;51.988;5.854;2024-03-23T05:46:08;7.70;87.70
86002;DHT22;76581;51.988;5.854;2024-03-23T05:47:09;7.70;87.90
86002;DHT22;76581;51.988;5.854;2024-03-23T05:48:10;7.70;87.90
86002;DHT22;76581;51.988;5.854;2024-03-23T05:49:10;7.60;87.70
86002;DHT22;76581;51.988;5.854;2024-03-23T05:50:11;7.60;87.80
86002;DHT22;76581;51.988;5.854;2024-03-23T05:51:13;7.60;87.80
86002;DHT22;76581;51.988;5.854;2024-03-23T05:52:13;7.60;87.80
86002;DHT22;76581;51.988;5.854;2024-03-23T05:53:15;7.60;88.00
86002;DHT22;76581;51.988;5.854;2024-03-23T05:54:16;7.60;88.10
86002;DHT22;76581;51.988;5.854;2024-03-23T05:55:16;7.60;88.30
86002;DHT22;76581;51.988;5.854;2024-03-23T05:56:19;7.60;87.80
86002;DHT22;76581;51.988;5.854;2024-03-23T05:57:20;7.60;87.80
86002;DHT22;76581;51.988;5.854;2024-03-23T05:58:21;7.60;87.70
86002;DHT22;76581;51.988;5.854;2024-03-23T05:59:21;7.60;87.80
86002;DHT22;76581;51.988;5.854;2024-03-23T06:00:22;7.60;87.80
86002;DHT22;76581;51.988;5.854;2024-03-23T06:01:22;7.60;88.00
86002;DHT22;76581;51.988;5.854;2024-03-23T06:02:24;7.60;87.90
86002;DHT22;76581;51.988;5.854;2024-03-23T06:03:25;7.60;87.50
86002;DHT22;76581;51.988;5.854;2024-03-23T06:04:25;7.60;87.50
86002;DHT22;76581;51.988;5.854;2024-03-23T06:05:26;7.60;87.70
86002;DHT22;76581;51.988;5.854;2024-03-23T06:06:26;7.60;87.80
86002;DHT22;76581;51.988;5.854;2024-03-23T06:07:27;7.60;88.00
86002;DHT22;76581;51.988;5.854;2024-03-23T06:08:28;7.60;88.10
86002;DHT22;76581;51.988;5.854;2024-03-23T06:09:28;7.60;88.10
86002;DHT22;76581;51.988;5.854;2024-03-23T06:10:31;7.60;87.90
86002;DHT22;76581;51.988;5.854;2024-03-23T06:11:32;7.60;87.80
86002;DHT22;76581;51.988;5.854;2024-03-23T06:12:32;7.60;87.80
86002;DHT22;76581;51.988;5.854;2024-03-23T06:13:33;7.60;87.80
86002;DHT22;76581;51.988;5.854;2024-03-23T06:14:34;7.60;88.00
86002;DHT22;76581;51.988;5.854;2024-03-23T06:15:35;7.70;88.00
86002;DHT22;76581;51.988;5.854;2024-03-23T06:16:38;7.70;87.80
86002;DHT22;76581;51.988;5.854;2024-03-23T06:17:38;7.70;88.50
86002;DHT22;76581;51.988;5.854;2024-03-23T06:18:39;7.70;87.80
86002;DHT22;76581;51.988;5.854;2024-03-23T06:19:40;7.70;87.40
86002;DHT22;76581;51.988;5.854;2024-03-23T06:20:40;7.70;87.40
86002;DHT22;76581;51.988;5.854;2024-03-23T06:21:44;7.70;87.40
86002;DHT22;76581;51.988;5.854;2024-03-23T06:22:45;7.70;87.20
86002;DHT22;76581;51.988;5.854;2024-03-23T06:23:45;7.70;87.50
86002;DHT22;76581;51.988;5.854;2024-03-23T06:24:51;7.70;87.40
86002;DHT22;76581;51.988;5.854;2024-03-23T06:25:52;7.70;87.50
86002;DHT22;76581;51.988;5.854;2024-03-23T06:26:52;7.80;87.70
86002;DHT22;76581;51.988;5.854;2024-03-23T06:27:53;7.80;87.70
86002;DHT22;76581;51.988;5.854;2024-03-23T06:28:53;7.80;87.40
86002;DHT22;76581;51.988;5.854;2024-03-23T06:29:54;7.80;87.50
86002;DHT22;76581;51.988;5.854;2024-03-23T06:30:54;7.80;86.90
86002;DHT22;76581;51.988;5.854;2024-03-23T06:31:55;7.80;87.00
86002;DHT22;76581;51.988;5.854;2024-03-23T06:32:56;7.90;87.40
86002;DHT22;76581;51.988;5.854;2024-03-23T06:33:56;7.90;87.70
86002;DHT22;76581;51.988;5.854;2024-03-23T06:34:57;7.90;88.10
86002;DHT22;76581;51.988;5.854;2024-03-23T06:35:57;8.00;87.20
86002;DHT22;76581;51.988;5.854;2024-03-23T06:36:58;8.00;86.90
86002;DHT22;76581;51.988;5.854;2024-03-23T06:37:58;8.00;86.80
86002;DHT22;76581;51.988;5.854;2024-03-23T06:38:59;8.00;86.90
86002;DHT22;76581;51.988;5.854;2024-03-23T06:39:59;8.00;86.90
86002;DHT22;76581;51.988;5.854;2024-03-23T06:41:02;8.10;86.90
86002;DHT22;76581;51.988;5.854;2024-03-23T06:42:03;8.10;86.60
86002;DHT22;76581;51.988;5.854;2024-03-23T06:43:04;8.20;86.60
86002;DHT22;76581;51.988;5.854;2024-03-23T06:44:06;8.20;86.20
86002;DHT22;76581;51.988;5.854;2024-03-23T06:45:06;8.20;85.80
86002;DHT22;76581;51.988;5.854;2024-03-23T06:46:07;8.20;86.20
86002;DHT22;76581;51.988;5.854;2024-03-23T06:47:08;8.30;86.50
86002;DHT22;76581;51.988;5.854;2024-03-23T06:48:08;8.30;86.20
86002;DHT22;76581;51.988;5.854;2024-03-23T06:49:09;8.30;85.30
86002;DHT22;76581;51.988;5.854;2024-03-23T06:50:09;8.40;85.60
86002;DHT22;76581;51.988;5.854;2024-03-23T06:51:10;8.40;85.40
86002;DHT22;76581;51.988;5.854;2024-03-23T06:52:11;8.40;85.40
86002;DHT22;76581;51.988;5.854;2024-03-23T06:53:12;8.30;85.20
86002;DHT22;76581;51.988;5.854;2024-03-23T06:54:13;8.30;85.30
86002;DHT22;76581;51.988;5.854;2024-03-23T06:55:13;8.30;85.10
86002;DHT22;76581;51.988;5.854;2024-03-23T06:56:14;8.30;85.00
86002;DHT22;76581;51.988;5.854;2024-03-23T06:57:14;8.30;84.80
86002;DHT22;76581;51.988;5.854;2024-03-23T06:58:15;8.30;84.80
86002;DHT22;76581;51.988;5.854;2024-03-23T06:59:15;8.30;85.00
86002;DHT22;76581;51.988;5.854;2024-03-23T07:00:16;8.30;85.20
86002;DHT22;76581;51.988;5.854;2024-03-23T07:01:17;8.30;85.10
86002;DHT22;76581;51.988;5.854;2024-03-23T07:02:17;8.30;85.40
86002;DHT22;76581;51.988;5.854;2024-03-23T07:03:18;8.30;85.40
86002;DHT22;76581;51.988;5.854;2024-03-23T07:04:18;8.30;85.30
86002;DHT22;76581;51.988;5.854;2024-03-23T07:05:19;8.30;85.50
86002;DHT22;76581;51.988;5.854;2024-03-23T07:06:19;8.30;85.40
86002;DHT22;76581;51.988;5.854;2024-03-23T07:07:21;8.40;85.50
86002;DHT22;76581;51.988;5.854;2024-03-23T07:08:22;8.40;85.10
86002;DHT22;76581;51.988;5.854;2024-03-23T07:09:22;8.40;85.20
86002;DHT22;76581;51.988;5.854;2024-03-23T07:10:26;8.50;85.20
86002;DHT22;76581;51.988;5.854;2024-03-23T07:11:26;8.50;85.00
86002;DHT22;76581;51.988;5.854;2024-03-23T07:12:28;8.50;85.00
86002;DHT22;76581;51.988;5.854;2024-03-23T07:13:28;8.60;85.20
86002;DHT22;76581;51.988;5.854;2024-03-23T07:14:29;8.70;85.20
86002;DHT22;76581;51.988;5.854;2024-03-23T07:15:29;8.70;84.90
86002;DHT22;76581;51.988;5.854;2024-03-23T07:16:30;8.70;84.40
86002;DHT22;76581;51.988;5.854;2024-03-23T07:17:30;8.80;84.20
86002;DHT22;76581;51.988;5.854;2024-03-23T07:18:33;8.70;83.80
86002;DHT22;76581;51.988;5.854;2024-03-23T07:19:34;8.70;83.70
86002;DHT22;76581;51.988;5.854;2024-03-23T07:20:35;8.70;83.50
86002;DHT22;76581;51.988;5.854;2024-03-23T07:21:36;8.70;83.50
86002;DHT22;76581;51.988;5.854;2024-03-23T07:22:36;8.70;83.50